Time;durP1;ratioP1;P1;durP2;ratioP2;P2;SDS_P1;SDS_P2;PMS_P1;PMS_P2;Temp;Humidity;BMP_temperature;BMP_pressure;BME280_temperature;BME280_humidity;BME280_pressure;Samples;Min_cycle;Max_cycle;Signal;HPM_P1;HPM_P2
2023/03/17 00:00:19;;;;;;;8.30;5.53;;;;;;;;;;5077141;28;20204;-87
2023/03/17 00:02:47;;;;;;;5.90;5.30;;;;;;;;;;5075025;28;20668;-87
2023/03/17 00:05:22;;;;;;;8.37;5.93;;;;;;;;;;5076040;28;20220;-87
2023/03/17 00:07:50;;;;;;;7.00;5.50;;;;;;;;;;5076088;28;20319;-86
2023/03/17 00:10:20;;;;;;;6.70;5.80;;;;;;;;;;5076437;28;20212;-86
2023/03/17 00:12:48;;;;;;;10.23;5.77;;;;;;;;;;5075554;28;20274;-86
2023/03/17 00:15:16;;;;;;;7.33;5.57;;;;;;;;;;5075968;28;20287;-86
2023/03/17 00:17:44;;;;;;;8.60;5.90;;;;;;;;;;5075501;28;20625;-86
2023/03/17 00:20:13;;;;;;;7.70;5.70;;;;;;;;;;5076338;28;20198;-86
2023/03/17 00:22:41;;;;;;;7.30;6.23;;;;;;;;;;5075352;28;20240;-86
2023/03/17 00:25:17;;;;;;;7.27;6.00;;;;;;;;;;5075979;28;20218;-86
2023/03/17 00:27:45;;;;;;;8.53;6.20;;;;;;;;;;5075713;28;20233;-86
2023/03/17 00:30:13;;;;;;;6.43;5.70;;;;;;;;;;5076099;28;20212;-86
2023/03/17 00:32:41;;;;;;;8.77;5.57;;;;;;;;;;5075312;28;20319;-86
2023/03/17 00:35:16;;;;;;;7.77;6.00;;;;;;;;;;5075779;28;20232;-86
2023/03/17 00:37:44;;;;;;;7.70;5.87;;;;;;;;;;5075770;28;20304;-86
2023/03/17 00:40:15;;;;;;;8.70;6.03;;;;;;;;;;5075950;28;20292;-86
2023/03/17 00:42:42;;;;;;;8.17;5.93;;;;;;;;;;5075395;28;20291;-86
2023/03/17 00:45:11;;;;;;;7.87;5.93;;;;;;;;;;5076042;28;20232;-87
2023/03/17 00:47:39;;;;;;;7.07;5.53;;;;;;;;;;5075311;28;20740;-87
2023/03/17 00:50:07;;;;;;;6.93;5.83;;;;;;;;;;5075863;28;20629;-86
2023/03/17 00:52:34;;;;;;;7.60;5.50;;;;;;;;;;5075008;28;20239;-87
2023/03/17 00:55:01;;;;;;;8.17;6.00;;;;;;;;;;5075218;28;20240;-86
2023/03/17 00:57:28;;;;;;;8.07;5.80;;;;;;;;;;5075261;28;20244;-86
2023/03/17 00:59:55;;;;;;;6.43;5.13;;;;;;;;;;5075589;28;20660;-86
2023/03/17 01:02:24;;;;;;;6.57;5.23;;;;;;;;;;5074586;28;20799;-86
2023/03/17 01:04:52;;;;;;;9.27;6.00;;;;;;;;;;5075352;28;20282;-86
2023/03/17 01:07:19;;;;;;;6.20;5.40;;;;;;;;;;5074811;28;20315;-86
2023/03/17 01:09:47;;;;;;;9.37;5.60;;;;;;;;;;5075104;28;20223;-86
2023/03/17 01:12:14;;;;;;;6.20;5.60;;;;;;;;;;5074831;28;20236;-86
2023/03/17 01:14:42;;;;;;;6.07;5.47;;;;;;;;;;5075028;28;20221;-86
2023/03/17 01:17:12;;;;;;;6.43;5.57;;;;;;;;;;5075031;28;20229;-86
2023/03/17 01:19:40;;;;;;;7.07;5.87;;;;;;;;;;5074718;28;20193;-87
2023/03/17 01:22:07;;;;;;;6.47;5.70;;;;;;;;;;5074474;28;20229;-87
2023/03/17 01:24:35;;;;;;;6.37;5.20;;;;;;;;;;5074825;28;20221;-86
2023/03/17 01:27:02;;;;;;;11.00;5.70;;;;;;;;;;5074541;28;20201;-87
2023/03/17 01:29:29;;;;;;;8.20;5.67;;;;;;;;;;5075287;28;20235;-86
2023/03/17 01:31:56;;;;;;;6.23;5.63;;;;;;;;;;5074395;28;20226;-86
2023/03/17 01:34:23;;;;;;;6.43;5.70;;;;;;;;;;5074749;28;20232;-86
2023/03/17 01:36:52;;;;;;;9.30;5.93;;;;;;;;;;5074538;28;20204;-86
2023/03/17 01:39:19;;;;;;;6.77;5.30;;;;;;;;;;5074713;28;20231;-86
2023/03/17 01:41:46;;;;;;;18.70;5.80;;;;;;;;;;5073669;28;20205;-87
2023/03/17 01:44:15;;;;;;;8.43;5.93;;;;;;;;;;5074405;28;20743;-86
2023/03/17 01:46:44;;;;;;;9.27;5.60;;;;;;;;;;5073779;28;20717;-89
2023/03/17 01:49:14;;;;;;;6.63;5.83;;;;;;;;;;5074173;28;20593;-86
2023/03/17 01:51:45;;;;;;;5.70;5.10;;;;;;;;;;5074367;28;20190;-87
2023/03/17 01:54:15;;;;;;;8.47;5.63;;;;;;;;;;5073723;28;20803;-87
2023/03/17 01:56:44;;;;;;;6.37;5.27;;;;;;;;;;5064603;28;20289;-88
2023/03/17 01:59:14;;;;;;;6.60;5.40;;;;;;;;;;5073825;28;20576;-87
2023/03/17 02:01:43;;;;;;;6.83;5.40;;;;;;;;;;5073849;28;20211;-86
2023/03/17 02:04:11;;;;;;;9.20;6.40;;;;;;;;;;5071787;28;20225;-87
2023/03/17 02:06:38;;;;;;;6.23;5.63;;;;;;;;;;5074012;28;20207;-86
2023/03/17 02:09:06;;;;;;;6.67;5.67;;;;;;;;;;5072816;28;20236;-86
2023/03/17 02:11:35;;;;;;;6.47;5.20;;;;;;;;;;5073753;28;20288;-86
2023/03/17 02:14:02;;;;;;;6.77;5.57;;;;;;;;;;5073144;28;20234;-87
2023/03/17 02:16:31;;;;;;;7.27;5.57;;;;;;;;;;5073793;28;20209;-86
2023/03/17 02:18:58;;;;;;;6.20;5.60;;;;;;;;;;5073184;28;20235;-86
2023/03/17 02:21:35;;;;;;;7.43;5.60;;;;;;;;;;5073909;28;20209;-87
2023/03/17 02:24:06;;;;;;;5.73;5.13;;;;;;;;;;5072707;28;20252;-86
2023/03/17 02:26:34;;;;;;;6.70;5.17;;;;;;;;;;5073626;28;20573;-86
2023/03/17 02:29:02;;;;;;;5.67;5.10;;;;;;;;;;5073151;28;20332;-86
2023/03/17 02:31:29;;;;;;;9.23;5.70;;;;;;;;;;5073354;28;20208;-85
2023/03/17 02:33:56;;;;;;;7.47;5.13;;;;;;;;;;5072859;28;20239;-87
2023/03/17 02:36:24;;;;;;;7.13;5.03;;;;;;;;;;5073551;28;20293;-86
2023/03/17 02:38:53;;;;;;;6.00;5.13;;;;;;;;;;5072943;28;20228;-86
2023/03/17 02:41:20;;;;;;;9.07;6.47;;;;;;;;;;5073387;28;20212;-86
2023/03/17 02:43:47;;;;;;;6.30;5.30;;;;;;;;;;5072914;28;20239;-86
2023/03/17 02:46:15;;;;;;;9.83;5.20;;;;;;;;;;5073569;28;20227;-86
2023/03/17 02:48:42;;;;;;;6.70;5.53;;;;;;;;;;5072727;28;20239;-86
2023/03/17 02:51:10;;;;;;;7.57;5.20;;;;;;;;;;5073245;28;20213;-86
2023/03/17 02:53:37;;;;;;;6.87;5.50;;;;;;;;;;5073015;28;20247;-86
2023/03/17 02:56:05;;;;;;;6.27;5.33;;;;;;;;;;5073658;28;20230;-86
2023/03/17 02:58:32;;;;;;;6.63;5.50;;;;;;;;;;5073258;28;20625;-87
2023/03/17 03:00:59;;;;;;;6.27;5.47;;;;;;;;;;5073896;28;20204;-86
2023/03/17 03:03:27;;;;;;;5.73;5.10;;;;;;;;;;5073039;28;20236;-86
2023/03/17 03:05:54;;;;;;;6.17;5.47;;;;;;;;;;5073734;28;20217;-86
2023/03/17 03:11:09;;;;;;;7.37;5.17;;;;;;;;;;5074769;28;20571;-86
2023/03/17 03:13:37;;;;;;;5.53;4.80;;;;;;;;;;5072653;28;20244;-86
2023/03/17 03:16:05;;;;;;;6.90;5.83;;;;;;;;;;5073296;28;20323;-87
2023/03/17 03:18:32;;;;;;;7.53;4.87;;;;;;;;;;5073167;28;20314;-86
2023/03/17 03:20:59;;;;;;;5.17;4.67;;;;;;;;;;5073095;28;20605;-86
2023/03/17 03:23:27;;;;;;;6.87;5.10;;;;;;;;;;5073841;28;20262;-86
2023/03/17 03:25:54;;;;;;;6.97;5.40;;;;;;;;;;5077118;28;20770;-86
2023/03/17 03:28:22;;;;;;;5.77;4.83;;;;;;;;;;5076655;28;20240;-87
2023/03/17 03:30:49;;;;;;;10.40;5.40;;;;;;;;;;5077325;28;20203;-87
2023/03/17 03:33:17;;;;;;;6.90;5.27;;;;;;;;;;5077754;28;20319;-87
2023/03/17 03:35:44;;;;;;;7.90;5.80;;;;;;;;;;5078288;28;20225;-86
2023/03/17 03:38:11;;;;;;;10.33;5.37;;;;;;;;;;5080973;28;20232;-86
2023/03/17 03:40:38;;;;;;;7.13;4.90;;;;;;;;;;5085019;28;20208;-86
2023/03/17 03:43:06;;;;;;;6.97;5.40;;;;;;;;;;5097667;22;20236;-83
2023/03/17 03:45:34;;;;;;;6.73;5.47;;;;;;;;;;5103220;28;20652;-83
2023/03/17 03:48:01;;;;;;;6.50;5.63;;;;;;;;;;5099803;28;20227;-83
2023/03/17 03:50:28;;;;;;;7.00;5.73;;;;;;;;;;5095450;28;20212;-83
2023/03/17 03:52:56;;;;;;;5.53;5.00;;;;;;;;;;5094081;28;20241;-83
2023/03/17 03:55:23;;;;;;;6.97;5.60;;;;;;;;;;5095357;28;20235;-83
2023/03/17 03:57:50;;;;;;;8.40;5.40;;;;;;;;;;5094707;28;20645;-83
2023/03/17 04:00:18;;;;;;;4.90;4.40;;;;;;;;;;5078411;28;20220;-83
2023/03/17 04:02:47;;;;;;;6.17;5.47;;;;;;;;;;5074162;28;20237;-83
2023/03/17 04:05:15;;;;;;;6.43;5.70;;;;;;;;;;5075055;28;20202;-83
2023/03/17 04:07:42;;;;;;;7.13;4.80;;;;;;;;;;5090290;28;20236;-83
2023/03/17 04:10:10;;;;;;;5.93;5.23;;;;;;;;;;5094813;28;20672;-83
2023/03/17 04:12:37;;;;;;;6.70;4.80;;;;;;;;;;5094266;28;20241;-83
2023/03/17 04:15:05;;;;;;;5.60;4.93;;;;;;;;;;5094516;28;20224;-83
2023/03/17 04:17:32;;;;;;;6.10;4.50;;;;;;;;;;5088206;28;20225;-83
2023/03/17 04:20:01;;;;;;;6.20;5.33;;;;;;;;;;5074762;28;20213;-83
2023/03/17 04:22:28;;;;;;;6.83;5.27;;;;;;;;;;5087711;28;20334;-84
2023/03/17 04:24:56;;;;;;;7.13;4.93;;;;;;;;;;5086621;28;20205;-83
2023/03/17 04:27:23;;;;;;;6.77;5.03;;;;;;;;;;5092979;28;20647;-83
2023/03/17 04:29:50;;;;;;;6.07;4.97;;;;;;;;;;5076121;28;20205;-83
2023/03/17 04:32:17;;;;;;;6.57;4.73;;;;;;;;;;5087345;28;20244;-83
2023/03/17 04:34:44;;;;;;;5.90;4.80;;;;;;;;;;5083823;28;20664;-83
2023/03/17 04:37:12;;;;;;;10.47;5.00;;;;;;;;;;5094176;28;20236;-83
2023/03/17 04:39:41;;;;;;;7.00;5.23;;;;;;;;;;5094184;28;20204;-83
2023/03/17 04:42:08;;;;;;;6.37;5.20;;;;;;;;;;5092658;28;20271;-83
2023/03/17 04:44:35;;;;;;;5.30;4.73;;;;;;;;;;5083745;28;20201;-83
2023/03/17 04:47:02;;;;;;;7.50;4.87;;;;;;;;;;5073923;28;20229;-83
2023/03/17 04:49:30;;;;;;;5.73;4.50;;;;;;;;;;5073959;28;20215;-83
2023/03/17 04:51:57;;;;;;;7.23;5.47;;;;;;;;;;5073146;28;20739;-83
2023/03/17 04:54:25;;;;;;;5.63;5.13;;;;;;;;;;5074234;28;20205;-83
2023/03/17 04:56:52;;;;;;;5.07;4.57;;;;;;;;;;5073823;28;20247;-89
2023/03/17 04:59:19;;;;;;;5.40;4.90;;;;;;;;;;5080910;28;20240;-83
2023/03/17 05:01:46;;;;;;;6.50;5.83;;;;;;;;;;5073173;28;20205;-83
2023/03/17 05:04:14;;;;;;;5.97;5.27;;;;;;;;;;5074059;28;20255;-83
2023/03/17 05:06:41;;;;;;;5.97;5.33;;;;;;;;;;5091422;28;20660;-83
2023/03/17 05:09:08;;;;;;;5.63;5.03;;;;;;;;;;5094108;28;20209;-82
2023/03/17 05:11:36;;;;;;;6.77;4.70;;;;;;;;;;5093408;28;20668;-81
2023/03/17 05:14:03;;;;;;;8.53;5.13;;;;;;;;;;5093834;28;20719;-80
2023/03/17 05:16:30;;;;;;;7.73;5.73;;;;;;;;;;5094328;28;20282;-80
2023/03/17 05:18:57;;;;;;;7.60;5.60;;;;;;;;;;5101367;28;20236;-83
2023/03/17 05:21:25;;;;;;;6.37;5.27;;;;;;;;;;5114229;28;20219;-82
2023/03/17 05:23:52;;;;;;;5.33;4.80;;;;;;;;;;5113579;28;20259;-83
2023/03/17 05:26:19;;;;;;;8.40;5.50;;;;;;;;;;5114176;28;20204;-83
2023/03/17 05:28:47;;;;;;;6.90;6.10;;;;;;;;;;5113561;28;20243;-82
2023/03/17 05:31:15;;;;;;;7.57;6.37;;;;;;;;;;5114276;28;20298;-83
2023/03/17 05:33:42;;;;;;;9.37;6.30;;;;;;;;;;5113298;28;20698;-83
2023/03/17 05:36:09;;;;;;;7.83;6.40;;;;;;;;;;5114433;28;20212;-84
2023/03/17 05:38:36;;;;;;;8.30;5.73;;;;;;;;;;5113611;28;20268;-83
2023/03/17 05:41:04;;;;;;;6.60;5.20;;;;;;;;;;5113127;28;20228;-89
2023/03/17 05:43:31;;;;;;;7.60;5.97;;;;;;;;;;5091418;28;20236;-84
2023/03/17 05:45:59;;;;;;;9.30;5.73;;;;;;;;;;5092629;28;20542;-83
2023/03/17 05:48:26;;;;;;;6.93;4.87;;;;;;;;;;5092615;28;20231;-83
2023/03/17 05:50:53;;;;;;;7.40;5.43;;;;;;;;;;5093339;28;20231;-83
2023/03/17 05:53:21;;;;;;;7.07;6.00;;;;;;;;;;5092562;28;20659;-83
2023/03/17 05:55:48;;;;;;;6.27;5.67;;;;;;;;;;5093080;28;20252;-83
2023/03/17 05:58:15;;;;;;;8.53;5.63;;;;;;;;;;5092812;28;20667;-83
2023/03/17 06:00:43;;;;;;;8.47;5.83;;;;;;;;;;5093271;28;20253;-83
2023/03/17 06:03:12;;;;;;;6.03;5.43;;;;;;;;;;5092217;28;20249;-83
2023/03/17 06:05:39;;;;;;;9.83;5.80;;;;;;;;;;5092827;28;20262;-84
2023/03/17 06:08:06;;;;;;;6.77;6.03;;;;;;;;;;5092356;28;20234;-84
2023/03/17 06:10:33;;;;;;;8.33;5.40;;;;;;;;;;5092899;28;20205;-83
2023/03/17 06:13:01;;;;;;;5.97;5.37;;;;;;;;;;5092122;28;20228;-83
2023/03/17 06:15:28;;;;;;;10.13;6.77;;;;;;;;;;5092596;28;20620;-84
2023/03/17 06:17:55;;;;;;;7.60;6.47;;;;;;;;;;5092214;28;20233;-83
2023/03/17 06:20:24;;;;;;;10.13;6.33;;;;;;;;;;5092822;28;20216;-83
2023/03/17 06:22:51;;;;;;;9.47;6.43;;;;;;;;;;5091869;28;20240;-83
2023/03/17 06:25:18;;;;;;;10.53;6.90;;;;;;;;;;5092896;28;20211;-84
2023/03/17 06:27:45;;;;;;;17.63;6.83;;;;;;;;;;5092238;28;20229;-83
2023/03/17 06:30:12;;;;;;;8.83;6.23;;;;;;;;;;5092790;28;20211;-84
2023/03/17 06:32:39;;;;;;;8.27;6.30;;;;;;;;;;5091942;28;20248;-84
2023/03/17 06:35:07;;;;;;;10.27;7.13;;;;;;;;;;5092714;28;20201;-83
2023/03/17 06:37:36;;;;;;;8.63;6.50;;;;;;;;;;5091819;28;20735;-83
2023/03/17 06:40:04;;;;;;;11.00;7.27;;;;;;;;;;5092564;28;20215;-83
2023/03/17 06:42:31;;;;;;;8.77;6.87;;;;;;;;;;5091812;28;20240;-83
2023/03/17 06:44:59;;;;;;;12.47;8.33;;;;;;;;;;5092266;28;20205;-84
2023/03/17 06:47:26;;;;;;;10.93;6.90;;;;;;;;;;5091934;28;20236;-84
2023/03/17 06:49:53;;;;;;;11.60;7.47;;;;;;;;;;5092506;28;20200;-84
2023/03/17 06:52:20;;;;;;;9.90;7.20;;;;;;;;;;5091951;28;20232;-83
2023/03/17 06:54:48;;;;;;;10.33;7.40;;;;;;;;;;5092077;28;20603;-83
2023/03/17 06:57:15;;;;;;;10.23;6.77;;;;;;;;;;5091501;28;20841;-84
2023/03/17 06:59:42;;;;;;;9.27;7.40;;;;;;;;;;5092320;28;20564;-84
2023/03/17 07:02:11;;;;;;;12.50;7.47;;;;;;;;;;5091702;28;20243;-84
2023/03/17 07:04:38;;;;;;;10.77;6.77;;;;;;;;;;5092404;28;20196;-83
2023/03/17 07:07:05;;;;;;;8.70;7.13;;;;;;;;;;5091519;28;20230;-84
2023/03/17 07:09:33;;;;;;;8.13;7.33;;;;;;;;;;5092279;28;20204;-85
2023/03/17 07:12:03;;;;;;;10.27;7.23;;;;;;;;;;5091485;28;20236;-84
2023/03/17 07:14:32;;;;;;;11.40;8.07;;;;;;;;;;5092429;28;20295;-85
2023/03/17 07:16:59;;;;;;;10.40;8.40;;;;;;;;;;5091625;28;20307;-85
2023/03/17 07:19:26;;;;;;;10.00;8.73;;;;;;;;;;5092458;28;20288;-85
2023/03/17 07:21:55;;;;;;;10.77;7.57;;;;;;;;;;5080505;28;20271;-84
2023/03/17 07:24:22;;;;;;;10.73;7.97;;;;;;;;;;5074992;28;20210;-84
2023/03/17 07:26:49;;;;;;;12.87;7.93;;;;;;;;;;5072081;28;20209;-85
2023/03/17 07:29:18;;;;;;;10.87;7.80;;;;;;;;;;5071751;28;20205;-85
2023/03/17 07:31:45;;;;;;;11.27;7.20;;;;;;;;;;5071264;28;20209;-85
2023/03/17 07:34:12;;;;;;;12.97;8.13;;;;;;;;;;5071945;28;20205;-85
2023/03/17 07:36:39;;;;;;;10.60;6.97;;;;;;;;;;5071525;28;20313;-85
2023/03/17 07:39:06;;;;;;;8.57;6.53;;;;;;;;;;5071855;28;20205;-85
2023/03/17 07:41:33;;;;;;;9.50;6.80;;;;;;;;;;5071385;28;20598;-85
2023/03/17 07:44:00;;;;;;;9.67;7.17;;;;;;;;;;5071046;28;20246;-86
2023/03/17 07:46:29;;;;;;;7.97;7.00;;;;;;;;;;5080437;28;20202;-86
2023/03/17 07:48:56;;;;;;;7.30;6.47;;;;;;;;;;5091229;28;20236;-86
2023/03/17 07:51:26;;;;;;;12.93;7.20;;;;;;;;;;5091530;28;20209;-86
2023/03/17 07:53:54;;;;;;;10.13;7.43;;;;;;;;;;5090892;28;20259;-85
2023/03/17 07:56:22;;;;;;;7.97;6.43;;;;;;;;;;5091512;28;20227;-86
2023/03/17 07:58:49;;;;;;;6.50;5.40;;;;;;;;;;5091022;28;20236;-86
2023/03/17 08:01:16;;;;;;;6.83;5.97;;;;;;;;;;5091588;28;20588;-86
2023/03/17 08:03:47;;;;;;;7.33;6.10;;;;;;;;;;5090891;28;20232;-86
2023/03/17 08:06:15;;;;;;;8.13;6.40;;;;;;;;;;5091696;28;20185;-86
2023/03/17 08:08:42;;;;;;;8.37;5.83;;;;;;;;;;5090880;28;20246;-86
2023/03/17 08:11:09;;;;;;;6.50;5.43;;;;;;;;;;5095024;28;20208;-86
2023/03/17 08:13:36;;;;;;;9.37;5.77;;;;;;;;;;5094446;28;20700;-86
2023/03/17 08:16:03;;;;;;;8.07;5.13;;;;;;;;;;5095114;28;20216;-87
2023/03/17 08:18:31;;;;;;;5.27;4.77;;;;;;;;;;5094448;28;20232;-85
2023/03/17 08:20:59;;;;;;;6.30;5.60;;;;;;;;;;5095234;28;20577;-85
2023/03/17 08:23:26;;;;;;;5.20;4.70;;;;;;;;;;5075830;28;20244;-85
2023/03/17 08:25:57;;;;;;;5.23;4.73;;;;;;;;;;5074637;28;20204;-86
2023/03/17 08:28:24;;;;;;;6.03;4.83;;;;;;;;;;5074219;28;20236;-86
2023/03/17 08:30:51;;;;;;;4.87;4.47;;;;;;;;;;5074735;28;20205;-86
2023/03/17 08:33:18;;;;;;;5.17;4.67;;;;;;;;;;5073837;28;20241;-86
2023/03/17 08:35:45;;;;;;;4.60;4.20;;;;;;;;;;5074636;28;20205;-86
2023/03/17 08:38:14;;;;;;;4.53;4.13;;;;;;;;;;5074340;28;20261;-85
2023/03/17 08:40:41;;;;;;;4.77;4.20;;;;;;;;;;5074537;28;20197;-85
2023/03/17 08:43:09;;;;;;;4.73;4.23;;;;;;;;;;5074222;28;20247;-85
2023/03/17 08:45:36;;;;;;;4.60;4.17;;;;;;;;;;5085896;28;20292;-85
2023/03/17 08:48:03;;;;;;;4.93;4.13;;;;;;;;;;5093522;28;20720;-85
2023/03/17 08:50:31;;;;;;;4.63;4.13;;;;;;;;;;5094431;28;20189;-85
2023/03/17 08:52:58;;;;;;;4.20;3.80;;;;;;;;;;5092915;28;20976;-84
2023/03/17 08:55:27;;;;;;;4.63;4.23;;;;;;;;;;5092698;28;20192;-83
2023/03/17 08:57:54;;;;;;;4.37;3.97;;;;;;;;;;5092615;28;20251;-84
2023/03/17 09:00:21;;;;;;;5.50;4.37;;;;;;;;;;5093495;28;20197;-84
2023/03/17 09:02:48;;;;;;;5.43;3.47;;;;;;;;;;5093141;28;20242;-86
2023/03/17 09:05:16;;;;;;;3.93;3.60;;;;;;;;;;5093702;28;20185;-85
2023/03/17 09:07:44;;;;;;;6.33;3.47;;;;;;;;;;5092769;28;20236;-86
2023/03/17 09:10:12;;;;;;;3.83;3.33;;;;;;;;;;5093740;28;20200;-85
2023/03/17 09:12:41;;;;;;;3.77;3.27;;;;;;;;;;5092765;28;20247;-86
2023/03/17 09:15:10;;;;;;;3.90;3.60;;;;;;;;;;5093708;28;20204;-86
2023/03/17 09:17:38;;;;;;;3.83;3.37;;;;;;;;;;5088863;28;20233;-86
2023/03/17 09:20:06;;;;;;;3.77;3.10;;;;;;;;;;5076555;28;20813;-85
2023/03/17 09:22:33;;;;;;;5.23;3.33;;;;;;;;;;5091757;28;20263;-85
2023/03/17 09:25:00;;;;;;;4.00;3.53;;;;;;;;;;5092857;28;20196;-85
2023/03/17 09:27:27;;;;;;;3.53;3.23;;;;;;;;;;5092742;28;20236;-85
2023/03/17 09:29:56;;;;;;;3.93;3.40;;;;;;;;;;5092961;28;20315;-85
2023/03/17 09:32:23;;;;;;;3.97;3.57;;;;;;;;;;5092158;28;20236;-85
2023/03/17 09:34:51;;;;;;;6.53;3.43;;;;;;;;;;5092795;28;20205;-85
2023/03/17 09:37:18;;;;;;;3.10;2.80;;;;;;;;;;5091869;28;20657;-83
2023/03/17 09:39:45;;;;;;;3.30;3.00;;;;;;;;;;5093070;28;20220;-83
2023/03/17 09:42:17;;;;;;;3.57;3.27;;;;;;;;;;5092577;28;20281;-83
2023/03/17 09:44:48;;;;;;;3.57;3.20;;;;;;;;;;5092323;28;20562;-83
2023/03/17 09:47:36;;;;;;;5.77;3.37;;;;;;;;;;5091322;28;20250;-83
2023/03/17 09:50:04;;;;;;;4.03;3.10;;;;;;;;;;5092684;28;20244;-86
2023/03/17 09:52:33;;;;;;;3.40;3.10;;;;;;;;;;5091900;28;20853;-83
2023/03/17 09:55:00;;;;;;;3.13;2.80;;;;;;;;;;5092654;28;20236;-84
2023/03/17 09:57:30;;;;;;;3.40;3.03;;;;;;;;;;5091699;28;20704;-84
2023/03/17 10:00:05;;;;;;;3.63;2.77;;;;;;;;;;5092585;28;20247;-85
2023/03/17 10:02:36;;;;;;;3.53;3.23;;;;;;;;;;5091696;28;20711;-85
2023/03/17 10:05:08;;;;;;;3.37;2.90;;;;;;;;;;5092136;28;20196;-84
2023/03/17 10:07:40;;;;;;;3.77;2.87;;;;;;;;;;5091908;28;20228;-84
2023/03/17 10:10:14;;;;;;;3.70;3.00;;;;;;;;;;5092158;28;20185;-84
2023/03/17 10:12:46;;;;;;;3.37;2.90;;;;;;;;;;5091190;28;20252;-84
2023/03/17 10:15:16;;;;;;;3.10;2.80;;;;;;;;;;5079397;28;20247;-85
2023/03/17 10:17:46;;;;;;;2.83;2.60;;;;;;;;;;5071171;28;20236;-85
2023/03/17 10:20:14;;;;;;;3.17;2.87;;;;;;;;;;5072280;28;20213;-85
2023/03/17 10:22:43;;;;;;;2.73;2.53;;;;;;;;;;5070922;28;20248;-84
2023/03/17 10:25:14;;;;;;;4.10;3.33;;;;;;;;;;5075960;28;20198;-84
2023/03/17 10:27:43;;;;;;;3.47;3.00;;;;;;;;;;5092602;22;20245;-82
2023/03/17 10:30:14;;;;;;;3.90;3.00;;;;;;;;;;5077790;28;20205;-83
2023/03/17 10:32:42;;;;;;;4.30;3.30;;;;;;;;;;5053282;28;20249;-83
2023/03/17 10:35:11;;;;;;;3.17;2.87;;;;;;;;;;5057462;28;20727;-82
2023/03/17 10:37:38;;;;;;;3.27;2.97;;;;;;;;;;5066367;28;20240;-83
2023/03/17 10:40:09;;;;;;;3.63;2.63;;;;;;;;;;5062444;28;20206;-83
2023/03/17 10:42:45;;;;;;;6.10;2.77;;;;;;;;;;5049312;28;20706;-83
2023/03/17 10:45:15;;;;;;;3.13;2.80;;;;;;;;;;5055250;28;20276;-83
2023/03/17 10:47:44;;;;;;;3.00;2.80;;;;;;;;;;5046115;28;20230;-83
2023/03/17 10:50:23;;;;;;;2.93;2.67;;;;;;;;;;5041116;28;20225;-84
2023/03/17 10:52:54;;;;;;;3.33;2.70;;;;;;;;;;5049450;28;20316;-83
2023/03/17 10:55:22;;;;;;;4.03;2.80;;;;;;;;;;5052931;28;20772;-84
2023/03/17 10:57:51;;;;;;;2.60;2.40;;;;;;;;;;5055832;28;20296;-84
2023/03/17 11:00:19;;;;;;;3.93;3.00;;;;;;;;;;5059106;28;20213;-83
2023/03/17 11:02:48;;;;;;;2.83;2.53;;;;;;;;;;5049429;28;20288;-83
2023/03/17 11:05:20;;;;;;;2.70;2.50;;;;;;;;;;5050467;28;20225;-84
2023/03/17 11:07:49;;;;;;;3.27;2.80;;;;;;;;;;5049690;28;20240;-84
2023/03/17 11:10:18;;;;;;;2.50;2.30;;;;;;;;;;5050733;28;20209;-84
2023/03/17 11:12:45;;;;;;;4.60;2.90;;;;;;;;;;5050005;28;20238;-84
2023/03/17 11:15:15;;;;;;;2.80;2.60;;;;;;;;;;5050253;28;20214;-84
2023/03/17 11:17:46;;;;;;;3.47;2.63;;;;;;;;;;5049549;28;20638;-84
2023/03/17 11:20:20;;;;;;;4.35;2.60;;;;;;;;;;5050544;28;20239;-84
2023/03/17 11:22:54;;;;;;;2.83;2.58;;;;;;;;;;5050005;28;20283;-85
2023/03/17 11:25:22;;;;;;;2.88;2.67;;;;;;;;;;5049949;28;20667;-84
2023/03/17 11:27:52;;;;;;;2.70;2.50;;;;;;;;;;5049422;28;20295;-84
2023/03/17 11:30:25;;;;;;;3.58;2.35;;;;;;;;;;5050688;28;20644;-84
2023/03/17 11:32:56;;;;;;;3.58;2.50;;;;;;;;;;5049352;28;20229;-84
2023/03/17 11:35:29;;;;;;;4.97;2.33;;;;;;;;;;5049971;28;20705;-84
2023/03/17 11:38:06;;;;;;;2.10;2.00;;;;;;;;;;5049278;28;20229;-84
2023/03/17 11:40:36;;;;;;;2.60;2.38;;;;;;;;;;5050603;28;20198;-84
2023/03/17 11:43:13;;;;;;;1.98;1.88;;;;;;;;;;5049259;28;20234;-84
2023/03/17 11:45:46;;;;;;;2.30;2.03;;;;;;;;;;5052719;28;20202;-84
2023/03/17 11:48:17;;;;;;;2.38;2.00;;;;;;;;;;5053297;28;20229;-84
2023/03/17 11:50:50;;;;;;;2.50;2.30;;;;;;;;;;5034339;28;20195;-84
2023/03/17 11:53:27;;;;;;;2.58;2.20;;;;;;;;;;5033825;28;20239;-84
2023/03/17 11:55:56;;;;;;;2.67;2.25;;;;;;;;;;5037362;28;20197;-84
2023/03/17 11:58:28;;;;;;;2.88;2.50;;;;;;;;;;5047189;28;20912;-84
2023/03/17 12:00:57;;;;;;;3.55;2.20;;;;;;;;;;5072954;28;20194;-84
2023/03/17 12:03:29;;;;;;;2.35;2.10;;;;;;;;;;5052028;28;20252;-84
2023/03/17 12:05:58;;;;;;;5.32;2.38;;;;;;;;;;5053586;28;20238;-83
2023/03/17 12:08:29;;;;;;;2.17;2.03;;;;;;;;;;5052748;28;20260;-83
2023/03/17 12:10:58;;;;;;;2.22;2.03;;;;;;;;;;5054058;28;20214;-83
2023/03/17 12:13:29;;;;;;;2.88;2.20;;;;;;;;;;5053096;28;20237;-84
2023/03/17 12:15:57;;;;;;;3.88;2.30;;;;;;;;;;5053434;28;20910;-84
2023/03/17 12:18:29;;;;;;;4.05;2.42;;;;;;;;;;5052827;28;20238;-84
2023/03/17 12:20:58;;;;;;;2.13;1.85;;;;;;;;;;5046180;28;20677;-84
2023/03/17 12:23:29;;;;;;;3.03;1.90;;;;;;;;;;5053054;28;20238;-84
2023/03/17 12:25:59;;;;;;;2.30;2.10;;;;;;;;;;5053564;28;20916;-84
2023/03/17 12:28:27;;;;;;;2.85;1.90;;;;;;;;;;5052853;28;20257;-84
2023/03/17 12:30:58;;;;;;;2.53;2.10;;;;;;;;;;5053740;28;20237;-84
2023/03/17 12:33:27;;;;;;;2.33;1.75;;;;;;;;;;5053115;28;20244;-84
2023/03/17 12:35:55;;;;;;;4.38;2.00;;;;;;;;;;5052981;28;20217;-84
2023/03/17 12:38:26;;;;;;;3.92;1.90;;;;;;;;;;5059814;28;20225;-84
2023/03/17 12:41:08;;;;;;;4.85;2.10;;;;;;;;;;5054055;28;20205;-84
2023/03/17 12:43:42;;;;;;;1.92;1.83;;;;;;;;;;5050747;28;20705;-84
2023/03/17 12:46:27;;;;;;;3.28;2.55;;;;;;;;;;5053794;28;20233;-83
2023/03/17 12:49:09;;;;;;;2.38;2.17;;;;;;;;;;5053058;28;20612;-83
2023/03/17 12:51:43;;;;;;;2.33;2.13;;;;;;;;;;5040779;28;20212;-83
2023/03/17 12:54:14;;;;;;;3.47;2.08;;;;;;;;;;5053572;28;20234;-84
2023/03/17 12:56:44;;;;;;;1.98;1.88;;;;;;;;;;5056019;28;20233;-84
2023/03/17 12:59:16;;;;;;;2.13;1.92;;;;;;;;;;5053500;28;20214;-84
2023/03/17 13:01:45;;;;;;;2.00;1.80;;;;;;;;;;5053086;28;20264;-84
2023/03/17 13:04:17;;;;;;;2.03;1.90;;;;;;;;;;5053249;28;20206;-84
2023/03/17 13:06:45;;;;;;;2.22;2.10;;;;;;;;;;5052688;28;20234;-84
2023/03/17 13:09:29;;;;;;;2.22;2.03;;;;;;;;;;5054753;28;20197;-84
2023/03/17 13:11:57;;;;;;;3.05;2.10;;;;;;;;;;5060984;28;20210;-83
2023/03/17 13:14:40;;;;;;;2.03;1.83;;;;;;;;;;5063876;28;20206;-84
2023/03/17 13:17:31;;;;;;;2.50;1.90;;;;;;;;;;5062090;28;20268;-84
2023/03/17 13:20:04;;;;;;;1.95;1.73;;;;;;;;;;5060108;28;20194;-84
2023/03/17 13:22:36;;;;;;;2.25;1.88;;;;;;;;;;5058737;28;20261;-84
2023/03/17 13:25:13;;;;;;;4.57;2.17;;;;;;;;;;5057080;28;20198;-85
2023/03/17 13:27:44;;;;;;;2.08;1.85;;;;;;;;;;5045572;28;20240;-84
2023/03/17 13:33:23;;;;;;;2.50;2.30;;;;;;;;;;5074062;28;20621;-82
2023/03/17 13:35:57;;;;;;;2.63;2.17;;;;;;;;;;5068181;28;20232;-82
2023/03/17 13:38:31;;;;;;;2.00;1.80;;;;;;;;;;5067070;28;20236;-82
2023/03/17 13:41:13;;;;;;;4.22;1.95;;;;;;;;;;5067388;28;20197;-82
2023/03/17 13:43:53;;;;;;;4.55;2.30;;;;;;;;;;5065620;28;20228;-84
2023/03/17 13:46:22;;;;;;;3.85;2.47;;;;;;;;;;5065086;28;20674;-85
2023/03/17 13:48:53;;;;;;;1.98;1.67;;;;;;;;;;5083119;28;20256;-84
2023/03/17 13:51:22;;;;;;;3.25;1.90;;;;;;;;;;5067953;28;20217;-85
2023/03/17 13:53:52;;;;;;;1.90;1.80;;;;;;;;;;5067038;28;20760;-85
2023/03/17 13:56:22;;;;;;;5.22;2.03;;;;;;;;;;5067798;28;20795;-84
2023/03/17 13:58:52;;;;;;;2.35;1.60;;;;;;;;;;5085038;28;20232;-84
2023/03/17 14:01:20;;;;;;;1.92;1.50;;;;;;;;;;5081650;28;20233;-84
2023/03/17 14:03:49;;;;;;;3.45;2.40;;;;;;;;;;5082064;28;20232;-84
2023/03/17 14:06:19;;;;;;;4.07;1.80;;;;;;;;;;5087969;28;20232;-84
2023/03/17 14:08:48;;;;;;;2.38;2.00;;;;;;;;;;5069446;28;20245;-84
2023/03/17 14:11:22;;;;;;;6.38;2.08;;;;;;;;;;5067540;28;20255;-84
2023/03/17 14:13:54;;;;;;;6.60;2.47;;;;;;;;;;5076474;28;20224;-84
2023/03/17 14:16:25;;;;;;;4.28;2.17;;;;;;;;;;5078071;28;20229;-83
2023/03/17 14:19:00;;;;;;;3.10;2.30;;;;;;;;;;5072887;28;20283;-84
2023/03/17 14:21:31;;;;;;;3.00;2.55;;;;;;;;;;5067331;28;20208;-87
2023/03/17 14:23:59;;;;;;;3.85;2.22;;;;;;;;;;5066140;28;20241;-84
2023/03/17 14:26:28;;;;;;;3.60;2.00;;;;;;;;;;5067417;28;20308;-85
2023/03/17 14:28:55;;;;;;;3.22;2.10;;;;;;;;;;5065600;28;20316;-85
2023/03/17 14:31:24;;;;;;;3.83;2.17;;;;;;;;;;5065649;28;20886;-87
2023/03/17 14:33:52;;;;;;;2.60;2.33;;;;;;;;;;5066347;28;20228;-85
2023/03/17 14:36:20;;;;;;;2.40;2.20;;;;;;;;;;5067424;28;20226;-86
2023/03/17 14:38:49;;;;;;;4.25;2.20;;;;;;;;;;5065582;28;20614;-86
2023/03/17 14:41:18;;;;;;;3.80;1.90;;;;;;;;;;5064810;28;20266;-86
2023/03/17 14:43:45;;;;;;;3.05;2.08;;;;;;;;;;5057138;28;20226;-86
2023/03/17 14:46:15;;;;;;;2.35;2.10;;;;;;;;;;5053864;28;20245;-87
2023/03/17 14:48:43;;;;;;;5.70;2.17;;;;;;;;;;5064987;28;20233;-87
2023/03/17 14:51:15;;;;;;;3.53;2.35;;;;;;;;;;5073561;28;20209;-87
2023/03/17 14:53:45;;;;;;;3.20;2.13;;;;;;;;;;5061888;28;20241;-86
2023/03/17 14:56:14;;;;;;;2.20;2.00;;;;;;;;;;5053022;28;20230;-86